Ncc Danah — HZEH — position and weather

sailwx.info

Track history (hours):
 
Tides and Currents Weather Stations Pressure Air Temp Water Temp Dewpoint Dewpoint Depression Visibility Wind Speed Wind Dir Waves Ship Positions

Ncc Danah

Last reported at 2018-Jan-10 23:14 UTC. Time now 2018-Feb-19 14:35 UTC.
Position N 01°18' E 104°07'.
Warning: this ship's position is 39 days out of date.

Length 183 m; draft 9.6 m.

Type: Ship (hazmat cat B). MMSI: 403516001.

Date/timePositionNaut miles runAvg speedWind from/ knotsBaromVisibWave heightAir tempDewpointWater temp
2018-Jan-10 23:14N 01°18' E 104°07'310.4
2018-Jan-10 22:58N 01°19' E 104°05'10 9.6
2018-Jan-10 21:58N 01°24' E 103°57'3 0.2
2018-Jan-10 01:38N 01°26' E 103°54'0 0.5
2018-Jan-10 01:29N 01°26' E 103°54'1 1.3
2018-Jan-10 00:59N 01°26' E 103°55'2 3.5
2018-Jan-10 00:25N 01°24' E 103°56'3 6.3
2018-Jan-09 23:58N 01°24' E 103°59'510.7
2018-Jan-09 23:30N 01°21' E 104°03'5 9.8
2018-Jan-09 23:00N 01°19' E 104°07'0 0.0
2018-Jan-09 00:07N 01°18' E 104°07'0 0.0
2018-Jan-08 13:58N 01°18' E 104°08'1 0.1
2018-Jan-08 06:35N 01°18' E 104°07'1 7.8
2018-Jan-08 06:30N 01°18' E 104°07'5 9.6
2018-Jan-08 05:56N 01°15' E 104°03'612.3
2018-Jan-08 05:29N 01°14' E 103°57'612.2
2018-Jan-08 04:59N 01°11' E 103°52'612.0
2018-Jan-08 04:30N 01°08' E 103°47'712.6
2018-Jan-08 03:59N 01°04' E 103°42'511.2
2018-Jan-08 03:30N 01°04' E 103°37'611.3
2018-Jan-08 02:59N 01°08' E 103°32'612.8
2018-Jan-08 02:31N 01°11' E 103°37'611.3
2018-Jan-08 01:58N 01°10' E 103°43'1 1.5
2018-Jan-08 01:28N 01°11' E 103°43'0 0.0
2018-Jan-08 00:55N 01°11' E 103°43'0 0.1
2018-Jan-08 00:25N 01°11' E 103°43'0 0.0
2018-Jan-07 23:58N 01°11' E 103°43'0 0.0
2018-Jan-07 23:28N 01°11' E 103°43'0 0.0
2018-Jan-07 22:58N 01°11' E 103°43'0 0.0
2018-Jan-07 22:28N 01°11' E 103°43'0 0.0
2018-Jan-07 21:58N 01°11' E 103°43'0 0.1
2018-Jan-07 21:28N 01°11' E 103°43'0 0.1
2018-Jan-07 20:55N 01°11' E 103°43'0 0.1
2018-Jan-07 20:01N 01°11' E 103°43'0 0.0
2018-Jan-07 19:55N 01°11' E 103°43'0 0.1
2018-Jan-07 19:13N 01°11' E 103°43'0 0.2
2018-Jan-07 18:49N 01°11' E 103°43'0 0.1
2018-Jan-07 18:19N 01°11' E 103°43'0 0.2
2018-Jan-07 17:58N 01°11' E 103°43'0 0.2
2018-Jan-07 17:25N 01°11' E 103°43'0 0.1
2018-Jan-07 16:46N 01°11' E 103°43'0 0.0
2018-Jan-07 16:28N 01°11' E 103°43'0 0.1
2018-Jan-07 15:55N 01°11' E 103°43'0 0.1
2018-Jan-07 15:28N 01°11' E 103°43'0 0.1
2018-Jan-07 14:40N 01°10' E 103°43'0 0.0
2018-Jan-07 14:25N 01°10' E 103°43'0 0.2
2018-Jan-07 13:58N 01°11' E 103°43'0 0.1
2018-Jan-07 13:28N 01°11' E 103°43'0 0.0
2018-Jan-07 12:55N 01°11' E 103°43'0 0.2
2018-Jan-07 12:28N 01°11' E 103°43'0 0.2
2018-Jan-07 11:58N 01°11' E 103°43'0 0.0
2018-Jan-07 11:22N 01°11' E 103°43'0 0.2
2018-Jan-07 10:58N 01°11' E 103°43'0 0.1
2018-Jan-07 10:28N 01°11' E 103°43'0 0.1
2018-Jan-07 09:52N 01°11' E 103°43'0 0.2
2018-Jan-07 09:28N 01°11' E 103°43'0 0.0
2018-Jan-07 08:58N 01°11' E 103°43'0 0.1
2018-Jan-07 08:19N 01°11' E 103°43'0 0.1
2018-Jan-07 07:55N 01°11' E 103°43'0 0.0
2018-Jan-07 07:10N 01°10' E 103°43'0 0.0
2018-Jan-07 06:58N 01°10' E 103°43'0 0.1
2018-Jan-07 06:28N 01°11' E 103°43'0 0.1
2018-Jan-07 05:58N 01°10' E 103°43'0 0.1
2018-Jan-07 05:28N 01°10' E 103°43'0 0.9
2018-Jan-07 05:00N 01°10' E 103°42'3 5.9
2018-Jan-07 04:30N 01°11' E 103°40'4 8.2
2018-Jan-07 03:59N 01°12' E 103°35'2 3.9
2018-Jan-07 03:30N 01°12' E 103°34'3 5.3
2018-Jan-07 02:59N 01°10' E 103°31'3 5.8
2018-Jan-07 02:30N 01°09' E 103°29'4 7.1
2018-Jan-07 01:59N 01°11' E 103°26'4 7.8
2018-Jan-07 01:30N 01°14' E 103°23'9 8.0
2018-Jan-07 00:23N 01°19' E 103°16'27 7.6
2018-Jan-06 20:52N 01°34' E 102°53'  
Track history (hours):
 
Tides and Currents Weather Stations Pressure Air Temp Water Temp Dewpoint Dewpoint Depression Visibility Wind Speed Wind Dir Waves Ship Positions

Ncc Danah

Last reported at 2018-Jan-10 23:14 UTC. Time now 2018-Feb-19 14:35 UTC.
Position N 01°18' E 104°07'.
Warning: this ship's position is 39 days out of date.

Length 183 m; draft 9.6 m.

Type: Ship (hazmat cat B). MMSI: 403516001.

Date/timePositionNaut miles runAvg speedWind from/ knotsBaromVisibWave heightAir tempDewpointWater temp
2018-Jan-10 23:14N 01°18' E 104°07'310.4
2018-Jan-10 22:58N 01°19' E 104°05'10 9.6
2018-Jan-10 21:58N 01°24' E 103°57'3 0.2
2018-Jan-10 01:38N 01°26' E 103°54'0 0.5
2018-Jan-10 01:29N 01°26' E 103°54'1 1.3
2018-Jan-10 00:59N 01°26' E 103°55'2 3.5
2018-Jan-10 00:25N 01°24' E 103°56'3 6.3
2018-Jan-09 23:58N 01°24' E 103°59'510.7
2018-Jan-09 23:30N 01°21' E 104°03'5 9.8
2018-Jan-09 23:00N 01°19' E 104°07'0 0.0
2018-Jan-09 00:07N 01°18' E 104°07'0 0.0
2018-Jan-08 13:58N 01°18' E 104°08'1 0.1
2018-Jan-08 06:35N 01°18' E 104°07'1 7.8
2018-Jan-08 06:30N 01°18' E 104°07'5 9.6
2018-Jan-08 05:56N 01°15' E 104°03'612.3
2018-Jan-08 05:29N 01°14' E 103°57'612.2
2018-Jan-08 04:59N 01°11' E 103°52'612.0
2018-Jan-08 04:30N 01°08' E 103°47'712.6
2018-Jan-08 03:59N 01°04' E 103°42'511.2
2018-Jan-08 03:30N 01°04' E 103°37'611.3
2018-Jan-08 02:59N 01°08' E 103°32'612.8
2018-Jan-08 02:31N 01°11' E 103°37'611.3
2018-Jan-08 01:58N 01°10' E 103°43'1 1.5
2018-Jan-08 01:28N 01°11' E 103°43'0 0.0
2018-Jan-08 00:55N 01°11' E 103°43'0 0.1
2018-Jan-08 00:25N 01°11' E 103°43'0 0.0
2018-Jan-07 23:58N 01°11' E 103°43'0 0.0
2018-Jan-07 23:28N 01°11' E 103°43'0 0.0
2018-Jan-07 22:58N 01°11' E 103°43'0 0.0
2018-Jan-07 22:28N 01°11' E 103°43'0 0.0
2018-Jan-07 21:58N 01°11' E 103°43'0 0.1
2018-Jan-07 21:28N 01°11' E 103°43'0 0.1
2018-Jan-07 20:55N 01°11' E 103°43'0 0.1
2018-Jan-07 20:01N 01°11' E 103°43'0 0.0
2018-Jan-07 19:55N 01°11' E 103°43'0 0.1
2018-Jan-07 19:13N 01°11' E 103°43'0 0.2
2018-Jan-07 18:49N 01°11' E 103°43'0 0.1
2018-Jan-07 18:19N 01°11' E 103°43'0 0.2
2018-Jan-07 17:58N 01°11' E 103°43'0 0.2
2018-Jan-07 17:25N 01°11' E 103°43'0 0.1
2018-Jan-07 16:46N 01°11' E 103°43'0 0.0
2018-Jan-07 16:28N 01°11' E 103°43'0 0.1
2018-Jan-07 15:55N 01°11' E 103°43'0 0.1
2018-Jan-07 15:28N 01°11' E 103°43'0 0.1
2018-Jan-07 14:40N 01°10' E 103°43'0 0.0
2018-Jan-07 14:25N 01°10' E 103°43'0 0.2
2018-Jan-07 13:58N 01°11' E 103°43'0 0.1
2018-Jan-07 13:28N 01°11' E 103°43'0 0.0
2018-Jan-07 12:55N 01°11' E 103°43'0 0.2
2018-Jan-07 12:28N 01°11' E 103°43'0 0.2
2018-Jan-07 11:58N 01°11' E 103°43'0 0.0
2018-Jan-07 11:22N 01°11' E 103°43'0 0.2
2018-Jan-07 10:58N 01°11' E 103°43'0 0.1
2018-Jan-07 10:28N 01°11' E 103°43'0 0.1
2018-Jan-07 09:52N 01°11' E 103°43'0 0.2
2018-Jan-07 09:28N 01°11' E 103°43'0 0.0
2018-Jan-07 08:58N 01°11' E 103°43'0 0.1
2018-Jan-07 08:19N 01°11' E 103°43'0 0.1
2018-Jan-07 07:55N 01°11' E 103°43'0 0.0
2018-Jan-07 07:10N 01°10' E 103°43'0 0.0
2018-Jan-07 06:58N 01°10' E 103°43'0 0.1
2018-Jan-07 06:28N 01°11' E 103°43'0 0.1
2018-Jan-07 05:58N 01°10' E 103°43'0 0.1
2018-Jan-07 05:28N 01°10' E 103°43'0 0.9
2018-Jan-07 05:00N 01°10' E 103°42'3 5.9
2018-Jan-07 04:30N 01°11' E 103°40'4 8.2
2018-Jan-07 03:59N 01°12' E 103°35'2 3.9
2018-Jan-07 03:30N 01°12' E 103°34'3 5.3
2018-Jan-07 02:59N 01°10' E 103°31'3 5.8
2018-Jan-07 02:30N 01°09' E 103°29'4 7.1
2018-Jan-07 01:59N 01°11' E 103°26'4 7.8
2018-Jan-07 01:30N 01°14' E 103°23'9 8.0
2018-Jan-07 00:23N 01°19' E 103°16'27 7.6
2018-Jan-06 20:52N 01°34' E 102°53'  

Dump ship's entire track history